sensor_id;sensor_type;location;lat;lon;timestamp;temperature;humidity
4908;DHT22;64375;51.540;7.364;2023-06-22T00:00:40;27.00;75.00
4908;DHT22;64375;51.540;7.364;2023-06-22T00:03:12;27.00;75.10
4908;DHT22;64375;51.540;7.364;2023-06-22T00:05:40;27.10;75.50
4908;DHT22;64375;51.540;7.364;2023-06-22T00:08:16;27.10;74.70
4908;DHT22;64375;51.540;7.364;2023-06-22T00:10:44;27.00;74.70
4908;DHT22;64375;51.540;7.364;2023-06-22T00:13:13;27.10;75.10
4908;DHT22;64375;51.540;7.364;2023-06-22T00:15:42;27.10;75.10
4908;DHT22;64375;51.540;7.364;2023-06-22T00:18:13;27.00;74.60
4908;DHT22;64375;51.540;7.364;2023-06-22T00:20:43;26.90;74.80
4908;DHT22;64375;51.540;7.364;2023-06-22T00:26:08;26.60;75.60
4908;DHT22;64375;51.540;7.364;2023-06-22T00:28:38;26.50;75.80
4908;DHT22;64375;51.540;7.364;2023-06-22T00:31:05;26.50;76.00
4908;DHT22;64375;51.540;7.364;2023-06-22T00:33:33;26.50;76.30
4908;DHT22;64375;51.540;7.364;2023-06-22T00:36:05;26.60;76.20
4908;DHT22;64375;51.540;7.364;2023-06-22T00:38:34;26.60;76.30
4908;DHT22;64375;51.540;7.364;2023-06-22T00:41:05;26.60;76.00
4908;DHT22;64375;51.540;7.364;2023-06-22T00:43:34;26.60;75.80
4908;DHT22;64375;51.540;7.364;2023-06-22T00:46:02;26.50;77.00
4908;DHT22;64375;51.540;7.364;2023-06-22T00:48:33;26.30;76.80
4908;DHT22;64375;51.540;7.364;2023-06-22T00:51:06;26.30;77.00
4908;DHT22;64375;51.540;7.364;2023-06-22T00:53:34;26.30;76.90
4908;DHT22;64375;51.540;7.364;2023-06-22T00:56:04;26.40;76.90
4908;DHT22;64375;51.540;7.364;2023-06-22T00:58:34;26.30;76.90
4908;DHT22;64375;51.540;7.364;2023-06-22T01:01:02;26.20;77.60
4908;DHT22;64375;51.540;7.364;2023-06-22T01:03:30;26.20;77.90
4908;DHT22;64375;51.540;7.364;2023-06-22T01:06:02;26.20;77.80
4908;DHT22;64375;51.540;7.364;2023-06-22T01:08:42;26.20;77.80
4908;DHT22;64375;51.540;7.364;2023-06-22T01:11:20;26.10;78.20
4908;DHT22;64375;51.540;7.364;2023-06-22T01:13:58;26.20;78.00
4908;DHT22;64375;51.540;7.364;2023-06-22T01:16:34;26.20;77.90
4908;DHT22;64375;51.540;7.364;2023-06-22T01:19:15;26.30;77.70
4908;DHT22;64375;51.540;7.364;2023-06-22T01:21:57;26.30;77.60
4908;DHT22;64375;51.540;7.364;2023-06-22T01:24:45;26.30;77.50
4908;DHT22;64375;51.540;7.364;2023-06-22T01:27:31;26.30;77.90
4908;DHT22;64375;51.540;7.364;2023-06-22T01:30:02;26.20;78.40
4908;DHT22;64375;51.540;7.364;2023-06-22T01:32:34;26.10;78.40
4908;DHT22;64375;51.540;7.364;2023-06-22T01:35:07;26.00;78.90
4908;DHT22;64375;51.540;7.364;2023-06-22T01:37:37;26.00;78.70
4908;DHT22;64375;51.540;7.364;2023-06-22T01:40:07;25.80;79.10
4908;DHT22;64375;51.540;7.364;2023-06-22T01:42:36;25.70;79.60
4908;DHT22;64375;51.540;7.364;2023-06-22T01:45:16;25.60;80.00
4908;DHT22;64375;51.540;7.364;2023-06-22T01:47:48;25.60;79.90
4908;DHT22;64375;51.540;7.364;2023-06-22T01:50:22;25.70;79.90
4908;DHT22;64375;51.540;7.364;2023-06-22T01:52:53;25.70;79.70
4908;DHT22;64375;51.540;7.364;2023-06-22T01:55:21;25.70;79.90
4908;DHT22;64375;51.540;7.364;2023-06-22T01:57:55;25.70;79.70
4908;DHT22;64375;51.540;7.364;2023-06-22T02:00:25;25.70;80.20
4908;DHT22;64375;51.540;7.364;2023-06-22T02:02:59;25.60;80.30
4908;DHT22;64375;51.540;7.364;2023-06-22T02:05:33;25.60;80.60
4908;DHT22;64375;51.540;7.364;2023-06-22T02:08:06;25.60;80.40
4908;DHT22;64375;51.540;7.364;2023-06-22T02:10:36;25.70;80.30
4908;DHT22;64375;51.540;7.364;2023-06-22T02:13:07;25.70;79.90
4908;DHT22;64375;51.540;7.364;2023-06-22T02:15:37;25.80;79.80
4908;DHT22;64375;51.540;7.364;2023-06-22T02:18:05;25.70;80.40
4908;DHT22;64375;51.540;7.364;2023-06-22T02:20:42;25.60;81.10
4908;DHT22;64375;51.540;7.364;2023-06-22T02:23:13;25.60;81.50
4908;DHT22;64375;51.540;7.364;2023-06-22T02:25:41;25.60;81.20
4908;DHT22;64375;51.540;7.364;2023-06-22T02:28:13;25.60;80.90
4908;DHT22;64375;51.540;7.364;2023-06-22T02:30:43;25.70;80.60
4908;DHT22;64375;51.540;7.364;2023-06-22T02:33:16;25.70;80.60
4908;DHT22;64375;51.540;7.364;2023-06-22T02:35:44;25.80;80.30
4908;DHT22;64375;51.540;7.364;2023-06-22T02:38:25;25.80;80.20
4908;DHT22;64375;51.540;7.364;2023-06-22T02:40:59;25.80;80.10
4908;DHT22;64375;51.540;7.364;2023-06-22T02:43:29;25.90;80.20
4908;DHT22;64375;51.540;7.364;2023-06-22T02:46:02;25.90;79.90
4908;DHT22;64375;51.540;7.364;2023-06-22T02:48:39;25.80;80.00
4908;DHT22;64375;51.540;7.364;2023-06-22T02:51:09;25.80;79.90
4908;DHT22;64375;51.540;7.364;2023-06-22T02:53:43;25.90;79.90
4908;DHT22;64375;51.540;7.364;2023-06-22T02:56:18;25.90;79.70
4908;DHT22;64375;51.540;7.364;2023-06-22T02:58:57;25.90;79.70
4908;DHT22;64375;51.540;7.364;2023-06-22T03:01:34;25.90;79.70
4908;DHT22;64375;51.540;7.364;2023-06-22T03:04:13;25.90;80.10
4908;DHT22;64375;51.540;7.364;2023-06-22T03:06:44;25.90;79.90
4908;DHT22;64375;51.540;7.364;2023-06-22T03:09:20;26.00;79.80
4908;DHT22;64375;51.540;7.364;2023-06-22T03:11:52;26.00;79.60
4908;DHT22;64375;51.540;7.364;2023-06-22T03:14:20;26.10;79.60
4908;DHT22;64375;51.540;7.364;2023-06-22T03:16:50;26.10;79.30
4908;DHT22;64375;51.540;7.364;2023-06-22T03:19:21;26.10;79.40
4908;DHT22;64375;51.540;7.364;2023-06-22T03:21:59;26.00;79.30
4908;DHT22;64375;51.540;7.364;2023-06-22T03:24:27;26.00;79.30
4908;DHT22;64375;51.540;7.364;2023-06-22T03:26:56;26.10;79.40
4908;DHT22;64375;51.540;7.364;2023-06-22T03:29:24;26.10;79.10
4908;DHT22;64375;51.540;7.364;2023-06-22T03:31:59;26.10;79.40
4908;DHT22;64375;51.540;7.364;2023-06-22T03:34:27;26.00;79.60
4908;DHT22;64375;51.540;7.364;2023-06-22T03:37:03;26.00;79.90
4908;DHT22;64375;51.540;7.364;2023-06-22T03:39:32;25.80;80.70
4908;DHT22;64375;51.540;7.364;2023-06-22T03:42:02;25.70;80.80
4908;DHT22;64375;51.540;7.364;2023-06-22T03:44:32;25.70;80.40
4908;DHT22;64375;51.540;7.364;2023-06-22T03:47:09;25.70;80.40
4908;DHT22;64375;51.540;7.364;2023-06-22T03:49:37;25.60;80.90
4908;DHT22;64375;51.540;7.364;2023-06-22T03:52:19;25.60;80.40
4908;DHT22;64375;51.540;7.364;2023-06-22T03:54:50;25.60;80.30
4908;DHT22;64375;51.540;7.364;2023-06-22T03:57:21;25.70;80.40
4908;DHT22;64375;51.540;7.364;2023-06-22T03:59:51;25.70;80.10
4908;DHT22;64375;51.540;7.364;2023-06-22T04:02:20;25.80;80.10
4908;DHT22;64375;51.540;7.364;2023-06-22T04:04:51;25.90;79.90
4908;DHT22;64375;51.540;7.364;2023-06-22T04:07:19;25.90;79.70
4908;DHT22;64375;51.540;7.364;2023-06-22T04:09:50;25.90;79.50
4908;DHT22;64375;51.540;7.364;2023-06-22T04:12:18;26.00;80.00
4908;DHT22;64375;51.540;7.364;2023-06-22T04:14:46;26.00;79.60
4908;DHT22;64375;51.540;7.364;2023-06-22T04:17:25;25.80;81.70
4908;DHT22;64375;51.540;7.364;2023-06-22T04:19:55;25.80;80.30
4908;DHT22;64375;51.540;7.364;2023-06-22T04:22:26;25.70;81.60
4908;DHT22;64375;51.540;7.364;2023-06-22T04:24:54;25.30;82.30
4908;DHT22;64375;51.540;7.364;2023-06-22T04:27:22;25.30;82.50
4908;DHT22;64375;51.540;7.364;2023-06-22T04:29:50;25.20;83.20
4908;DHT22;64375;51.540;7.364;2023-06-22T04:32:25;25.20;82.30
4908;DHT22;64375;51.540;7.364;2023-06-22T04:34:56;25.20;82.20
4908;DHT22;64375;51.540;7.364;2023-06-22T04:37:26;25.20;81.60
4908;DHT22;64375;51.540;7.364;2023-06-22T04:40:01;25.20;82.70
4908;DHT22;64375;51.540;7.364;2023-06-22T04:42:34;25.10;83.50
4908;DHT22;64375;51.540;7.364;2023-06-22T04:45:03;25.00;83.90
4908;DHT22;64375;51.540;7.364;2023-06-22T04:47:35;24.90;84.10
4908;DHT22;64375;51.540;7.364;2023-06-22T04:50:08;24.90;84.00
4908;DHT22;64375;51.540;7.364;2023-06-22T04:52:36;25.00;83.00
4908;DHT22;64375;51.540;7.364;2023-06-22T04:55:05;25.00;83.50
4908;DHT22;64375;51.540;7.364;2023-06-22T04:57:39;24.90;84.80
4908;DHT22;64375;51.540;7.364;2023-06-22T05:00:18;24.70;85.20
4908;DHT22;64375;51.540;7.364;2023-06-22T05:02:51;24.00;87.80
4908;DHT22;64375;51.540;7.364;2023-06-22T05:05:29;23.90;88.70
4908;DHT22;64375;51.540;7.364;2023-06-22T05:08:01;23.40;90.50
4908;DHT22;64375;51.540;7.364;2023-06-22T05:10:35;23.00;91.20
4908;DHT22;64375;51.540;7.364;2023-06-22T05:13:03;23.00;91.30
4908;DHT22;64375;51.540;7.364;2023-06-22T05:15:31;23.20;91.40
4908;DHT22;64375;51.540;7.364;2023-06-22T05:18:04;23.00;92.10
4908;DHT22;64375;51.540;7.364;2023-06-22T05:20:42;23.10;91.80
4908;DHT22;64375;51.540;7.364;2023-06-22T05:23:12;23.30;91.60
4908;DHT22;64375;51.540;7.364;2023-06-22T05:25:41;23.40;91.40
4908;DHT22;64375;51.540;7.364;2023-06-22T05:28:26;23.50;91.40
4908;DHT22;64375;51.540;7.364;2023-06-22T05:31:12;23.50;91.70
4908;DHT22;64375;51.540;7.364;2023-06-22T05:34:00;23.40;92.20
4908;DHT22;64375;51.540;7.364;2023-06-22T05:36:31;23.10;92.50
4908;DHT22;64375;51.540;7.364;2023-06-22T05:39:11;23.10;92.80
4908;DHT22;64375;51.540;7.364;2023-06-22T05:41:40;23.20;92.70
4908;DHT22;64375;51.540;7.364;2023-06-22T05:44:08;23.10;92.90
4908;DHT22;64375;51.540;7.364;2023-06-22T05:46:36;23.30;92.80
4908;DHT22;64375;51.540;7.364;2023-06-22T05:49:08;23.00;93.30
4908;DHT22;64375;51.540;7.364;2023-06-22T05:51:37;22.80;93.80
4908;DHT22;64375;51.540;7.364;2023-06-22T05:54:05;22.60;94.30
4908;DHT22;64375;51.540;7.364;2023-06-22T05:56:40;22.50;94.60
4908;DHT22;64375;51.540;7.364;2023-06-22T05:59:08;22.60;94.30
4908;DHT22;64375;51.540;7.364;2023-06-22T06:01:36;22.60;94.60
4908;DHT22;64375;51.540;7.364;2023-06-22T06:04:04;22.70;94.60
4908;DHT22;64375;51.540;7.364;2023-06-22T06:06:39;22.60;94.20
4908;DHT22;64375;51.540;7.364;2023-06-22T06:09:07;22.50;94.20
4908;DHT22;64375;51.540;7.364;2023-06-22T06:11:38;22.50;94.30
4908;DHT22;64375;51.540;7.364;2023-06-22T06:14:08;22.60;94.80
4908;DHT22;64375;51.540;7.364;2023-06-22T06:16:36;22.80;94.50
4908;DHT22;64375;51.540;7.364;2023-06-22T06:19:04;22.90;94.30
4908;DHT22;64375;51.540;7.364;2023-06-22T06:21:35;22.90;94.50
4908;DHT22;64375;51.540;7.364;2023-06-22T06:24:07;23.00;94.10
4908;DHT22;64375;51.540;7.364;2023-06-22T06:26:35;23.00;94.00
4908;DHT22;64375;51.540;7.364;2023-06-22T06:29:02;22.90;94.10
4908;DHT22;64375;51.540;7.364;2023-06-22T06:31:30;22.90;94.50
4908;DHT22;64375;51.540;7.364;2023-06-22T06:33:58;22.80;94.80
4908;DHT22;64375;51.540;7.364;2023-06-22T06:36:26;22.70;94.90
4908;DHT22;64375;51.540;7.364;2023-06-22T06:38:54;22.50;95.20
4908;DHT22;64375;51.540;7.364;2023-06-22T06:41:24;22.50;95.50
4908;DHT22;64375;51.540;7.364;2023-06-22T06:43:52;22.30;95.60
4908;DHT22;64375;51.540;7.364;2023-06-22T06:46:19;22.40;95.80
4908;DHT22;64375;51.540;7.364;2023-06-22T06:48:47;22.40;96.10
4908;DHT22;64375;51.540;7.364;2023-06-22T06:51:19;22.40;96.30
4908;DHT22;64375;51.540;7.364;2023-06-22T06:54:03;22.40;96.00
4908;DHT22;64375;51.540;7.364;2023-06-22T06:56:32;22.60;96.00
4908;DHT22;64375;51.540;7.364;2023-06-22T06:59:00;22.60;96.20
4908;DHT22;64375;51.540;7.364;2023-06-22T07:01:32;22.60;96.20
4908;DHT22;64375;51.540;7.364;2023-06-22T07:04:06;22.60;96.20
4908;DHT22;64375;51.540;7.364;2023-06-22T07:06:46;22.70;96.20
4908;DHT22;64375;51.540;7.364;2023-06-22T07:09:29;22.70;96.20
4908;DHT22;64375;51.540;7.364;2023-06-22T07:11:58;22.60;96.30
4908;DHT22;64375;51.540;7.364;2023-06-22T07:14:26;22.50;96.70
4908;DHT22;64375;51.540;7.364;2023-06-22T07:16:57;22.50;96.80
4908;DHT22;64375;51.540;7.364;2023-06-22T07:19:25;22.60;97.00
4908;DHT22;64375;51.540;7.364;2023-06-22T07:21:57;22.70;97.00
4908;DHT22;64375;51.540;7.364;2023-06-22T07:24:28;22.80;96.60
4908;DHT22;64375;51.540;7.364;2023-06-22T07:26:55;22.90;96.60
4908;DHT22;64375;51.540;7.364;2023-06-22T07:29:28;22.90;96.50
4908;DHT22;64375;51.540;7.364;2023-06-22T07:31:59;22.90;96.70
4908;DHT22;64375;51.540;7.364;2023-06-22T07:34:30;22.90;96.80
4908;DHT22;64375;51.540;7.364;2023-06-22T07:37:01;22.90;96.60
4908;DHT22;64375;51.540;7.364;2023-06-22T07:39:48;22.90;96.50
4908;DHT22;64375;51.540;7.364;2023-06-22T07:42:17;23.10;96.30
4908;DHT22;64375;51.540;7.364;2023-06-22T07:44:49;23.20;95.80
4908;DHT22;64375;51.540;7.364;2023-06-22T07:47:23;23.40;95.20
4908;DHT22;64375;51.540;7.364;2023-06-22T07:49:58;23.50;95.80
4908;DHT22;64375;51.540;7.364;2023-06-22T07:52:28;23.40;96.40
4908;DHT22;64375;51.540;7.364;2023-06-22T07:54:56;23.40;96.80
4908;DHT22;64375;51.540;7.364;2023-06-22T07:57:33;23.20;96.70
4908;DHT22;64375;51.540;7.364;2023-06-22T08:00:05;23.20;97.00
4908;DHT22;64375;51.540;7.364;2023-06-22T08:02:39;23.40;97.60
4908;DHT22;64375;51.540;7.364;2023-06-22T08:05:08;23.30;98.00
4908;DHT22;64375;51.540;7.364;2023-06-22T08:07:47;23.40;98.70
4908;DHT22;64375;51.540;7.364;2023-06-22T08:10:17;23.50;98.60
4908;DHT22;64375;51.540;7.364;2023-06-22T08:12:45;23.60;98.60
4908;DHT22;64375;51.540;7.364;2023-06-22T08:15:15;23.80;99.20
4908;DHT22;64375;51.540;7.364;2023-06-22T08:17:52;23.40;99.90
4908;DHT22;64375;51.540;7.364;2023-06-22T08:20:20;23.30;99.90
4908;DHT22;64375;51.540;7.364;2023-06-22T08:22:48;23.20;99.90
4908;DHT22;64375;51.540;7.364;2023-06-22T08:25:19;22.90;99.90
4908;DHT22;64375;51.540;7.364;2023-06-22T08:27:47;22.80;99.90
4908;DHT22;64375;51.540;7.364;2023-06-22T08:30:18;22.90;99.90
4908;DHT22;64375;51.540;7.364;2023-06-22T08:32:46;23.00;99.90
4908;DHT22;64375;51.540;7.364;2023-06-22T08:35:17;23.10;99.90
4908;DHT22;64375;51.540;7.364;2023-06-22T08:37:45;23.10;99.90
4908;DHT22;64375;51.540;7.364;2023-06-22T08:40:20;23.00;99.90
4908;DHT22;64375;51.540;7.364;2023-06-22T08:42:50;23.00;99.90
4908;DHT22;64375;51.540;7.364;2023-06-22T08:45:22;23.00;99.90
4908;DHT22;64375;51.540;7.364;2023-06-22T08:47:54;23.00;99.90
4908;DHT22;64375;51.540;7.364;2023-06-22T08:50:22;23.10;99.90
4908;DHT22;64375;51.540;7.364;2023-06-22T08:52:56;23.20;99.90
4908;DHT22;64375;51.540;7.364;2023-06-22T08:55:24;23.30;99.90
4908;DHT22;64375;51.540;7.364;2023-06-22T08:57:53;23.30;99.90
4908;DHT22;64375;51.540;7.364;2023-06-22T09:00:26;23.20;99.90
4908;DHT22;64375;51.540;7.364;2023-06-22T09:02:55;23.30;99.90
4908;DHT22;64375;51.540;7.364;2023-06-22T09:05:25;23.40;99.90
4908;DHT22;64375;51.540;7.364;2023-06-22T09:07:57;23.40;99.90
4908;DHT22;64375;51.540;7.364;2023-06-22T09:10:26;23.40;99.90
4908;DHT22;64375;51.540;7.364;2023-06-22T09:12:55;23.40;99.90
4908;DHT22;64375;51.540;7.364;2023-06-22T09:15:24;23.40;99.90
4908;DHT22;64375;51.540;7.364;2023-06-22T09:17:52;23.50;99.90
4908;DHT22;64375;51.540;7.364;2023-06-22T09:20:21;23.40;99.90
4908;DHT22;64375;51.540;7.364;2023-06-22T09:22:49;23.50;99.90
4908;DHT22;64375;51.540;7.364;2023-06-22T09:25:17;23.50;99.90
4908;DHT22;64375;51.540;7.364;2023-06-22T09:27:47;23.70;99.90
4908;DHT22;64375;51.540;7.364;2023-06-22T09:30:15;23.70;99.90
4908;DHT22;64375;51.540;7.364;2023-06-22T09:32:44;23.70;99.90
4908;DHT22;64375;51.540;7.364;2023-06-22T09:35:15;23.80;99.90
4908;DHT22;64375;51.540;7.364;2023-06-22T09:37:43;23.90;99.90
4908;DHT22;64375;51.540;7.364;2023-06-22T09:40:12;24.00;99.90
4908;DHT22;64375;51.540;7.364;2023-06-22T09:42:42;24.00;99.90
4908;DHT22;64375;51.540;7.364;2023-06-22T09:45:13;24.20;99.90
4908;DHT22;64375;51.540;7.364;2023-06-22T09:47:51;24.40;99.90
4908;DHT22;64375;51.540;7.364;2023-06-22T09:50:19;24.50;99.90
4908;DHT22;64375;51.540;7.364;2023-06-22T09:52:53;24.60;99.90
4908;DHT22;64375;51.540;7.364;2023-06-22T09:55:24;24.70;99.90
4908;DHT22;64375;51.540;7.364;2023-06-22T09:57:53;24.80;99.90
4908;DHT22;64375;51.540;7.364;2023-06-22T10:00:25;24.90;99.90
4908;DHT22;64375;51.540;7.364;2023-06-22T10:02:55;25.00;99.20
4908;DHT22;64375;51.540;7.364;2023-06-22T10:05:29;24.60;98.80
4908;DHT22;64375;51.540;7.364;2023-06-22T10:07:58;25.10;99.10
4908;DHT22;64375;51.540;7.364;2023-06-22T10:10:29;25.10;99.70
4908;DHT22;64375;51.540;7.364;2023-06-22T10:13:02;25.10;99.50
4908;DHT22;64375;51.540;7.364;2023-06-22T10:15:33;25.10;99.60
4908;DHT22;64375;51.540;7.364;2023-06-22T10:18:03;25.10;98.80
4908;DHT22;64375;51.540;7.364;2023-06-22T10:20:35;25.10;99.20
4908;DHT22;64375;51.540;7.364;2023-06-22T10:23:03;25.10;99.50
4908;DHT22;64375;51.540;7.364;2023-06-22T10:25:34;25.10;98.70
4908;DHT22;64375;51.540;7.364;2023-06-22T10:28:02;25.10;98.40
4908;DHT22;64375;51.540;7.364;2023-06-22T10:30:30;25.10;98.40
4908;DHT22;64375;51.540;7.364;2023-06-22T10:32:59;25.10;98.80
4908;DHT22;64375;51.540;7.364;2023-06-22T10:35:28;25.20;99.20
4908;DHT22;64375;51.540;7.364;2023-06-22T10:37:59;25.30;98.60
4908;DHT22;64375;51.540;7.364;2023-06-22T10:40:30;25.20;98.80
4908;DHT22;64375;51.540;7.364;2023-06-22T10:43:01;25.30;98.60
4908;DHT22;64375;51.540;7.364;2023-06-22T10:45:29;25.30;98.90
4908;DHT22;64375;51.540;7.364;2023-06-22T10:47:58;25.40;99.20
4908;DHT22;64375;51.540;7.364;2023-06-22T10:50:33;25.50;99.10
4908;DHT22;64375;51.540;7.364;2023-06-22T10:53:01;25.50;99.00
4908;DHT22;64375;51.540;7.364;2023-06-22T10:55:29;25.60;99.40
4908;DHT22;64375;51.540;7.364;2023-06-22T10:58:23;25.70;98.40
4908;DHT22;64375;51.540;7.364;2023-06-22T11:00:53;25.80;99.00
4908;DHT22;64375;51.540;7.364;2023-06-22T11:03:21;25.90;98.70
4908;DHT22;64375;51.540;7.364;2023-06-22T11:05:51;25.90;98.60
4908;DHT22;64375;51.540;7.364;2023-06-22T11:08:19;26.00;98.40
4908;DHT22;64375;51.540;7.364;2023-06-22T11:10:46;26.00;98.60
4908;DHT22;64375;51.540;7.364;2023-06-22T11:13:15;26.00;98.70
4908;DHT22;64375;51.540;7.364;2023-06-22T11:15:43;26.00;99.00
4908;DHT22;64375;51.540;7.364;2023-06-22T11:18:11;26.00;98.80
4908;DHT22;64375;51.540;7.364;2023-06-22T11:20:42;26.00;98.70
4908;DHT22;64375;51.540;7.364;2023-06-22T11:23:17;25.90;98.40
4908;DHT22;64375;51.540;7.364;2023-06-22T11:25:45;25.90;97.80
4908;DHT22;64375;51.540;7.364;2023-06-22T11:28:13;26.00;98.60
4908;DHT22;64375;51.540;7.364;2023-06-22T11:30:41;26.00;98.30
4908;DHT22;64375;51.540;7.364;2023-06-22T11:33:11;26.10;99.60
4908;DHT22;64375;51.540;7.364;2023-06-22T11:35:39;26.00;99.90
4908;DHT22;64375;51.540;7.364;2023-06-22T11:38:07;26.00;99.90
4908;DHT22;64375;51.540;7.364;2023-06-22T11:40:39;26.00;99.90
4908;DHT22;64375;51.540;7.364;2023-06-22T11:43:06;25.90;99.90
4908;DHT22;64375;51.540;7.364;2023-06-22T11:45:34;25.80;99.90
4908;DHT22;64375;51.540;7.364;2023-06-22T11:48:02;25.70;99.90
4908;DHT22;64375;51.540;7.364;2023-06-22T11:50:30;25.80;99.90
4908;DHT22;64375;51.540;7.364;2023-06-22T11:53:07;25.80;99.90
4908;DHT22;64375;51.540;7.364;2023-06-22T11:55:37;25.80;99.90
4908;DHT22;64375;51.540;7.364;2023-06-22T11:58:05;25.70;99.90
4908;DHT22;64375;51.540;7.364;2023-06-22T12:00:33;25.80;99.90
4908;DHT22;64375;51.540;7.364;2023-06-22T12:03:16;25.80;99.90
4908;DHT22;64375;51.540;7.364;2023-06-22T12:05:44;25.80;99.90
4908;DHT22;64375;51.540;7.364;2023-06-22T12:08:14;25.90;99.90
4908;DHT22;64375;51.540;7.364;2023-06-22T12:10:44;25.90;99.90
4908;DHT22;64375;51.540;7.364;2023-06-22T12:13:12;26.00;99.90
4908;DHT22;64375;51.540;7.364;2023-06-22T12:15:39;26.00;99.90
4908;DHT22;64375;51.540;7.364;2023-06-22T12:18:07;26.00;99.90
4908;DHT22;64375;51.540;7.364;2023-06-22T12:20:36;26.00;99.90
4908;DHT22;64375;51.540;7.364;2023-06-22T12:23:07;26.00;99.90
4908;DHT22;64375;51.540;7.364;2023-06-22T12:25:35;25.80;99.90
4908;DHT22;64375;51.540;7.364;2023-06-22T12:28:06;25.40;99.90
4908;DHT22;64375;51.540;7.364;2023-06-22T12:30:37;25.30;99.90
4908;DHT22;64375;51.540;7.364;2023-06-22T12:33:05;25.10;99.90
4908;DHT22;64375;51.540;7.364;2023-06-22T12:35:36;25.00;99.90
4908;DHT22;64375;51.540;7.364;2023-06-22T12:38:04;24.80;99.90
4908;DHT22;64375;51.540;7.364;2023-06-22T12:40:46;24.70;99.90
4908;DHT22;64375;51.540;7.364;2023-06-22T12:43:20;24.50;99.90
4908;DHT22;64375;51.540;7.364;2023-06-22T12:45:47;24.40;99.90
4908;DHT22;64375;51.540;7.364;2023-06-22T12:48:15;24.20;99.90
4908;DHT22;64375;51.540;7.364;2023-06-22T12:50:46;24.10;99.90
4908;DHT22;64375;51.540;7.364;2023-06-22T12:53:14;23.90;99.90
4908;DHT22;64375;51.540;7.364;2023-06-22T12:55:42;23.80;99.90
4908;DHT22;64375;51.540;7.364;2023-06-22T12:58:10;23.70;99.90
4908;DHT22;64375;51.540;7.364;2023-06-22T13:00:39;23.50;99.90
4908;DHT22;64375;51.540;7.364;2023-06-22T13:03:07;23.40;99.90
4908;DHT22;64375;51.540;7.364;2023-06-22T13:05:35;23.60;99.90
4908;DHT22;64375;51.540;7.364;2023-06-22T13:08:04;23.60;99.90
4908;DHT22;64375;51.540;7.364;2023-06-22T13:10:35;23.50;99.90
4908;DHT22;64375;51.540;7.364;2023-06-22T13:13:03;23.40;99.90
4908;DHT22;64375;51.540;7.364;2023-06-22T13:15:34;23.20;99.90
4908;DHT22;64375;51.540;7.364;2023-06-22T13:18:03;23.10;99.90
4908;DHT22;64375;51.540;7.364;2023-06-22T13:20:46;23.10;99.90
4908;DHT22;64375;51.540;7.364;2023-06-22T13:23:16;23.00;99.90
4908;DHT22;64375;51.540;7.364;2023-06-22T13:25:44;23.00;99.90
4908;DHT22;64375;51.540;7.364;2023-06-22T13:28:12;22.90;99.90
4908;DHT22;64375;51.540;7.364;2023-06-22T13:30:54;23.00;99.90
4908;DHT22;64375;51.540;7.364;2023-06-22T13:33:46;23.10;99.90
4908;DHT22;64375;51.540;7.364;2023-06-22T13:36:32;23.20;99.90
4908;DHT22;64375;51.540;7.364;2023-06-22T13:39:30;23.30;99.90
4908;DHT22;64375;51.540;7.364;2023-06-22T13:42:25;23.40;99.90
4908;DHT22;64375;51.540;7.364;2023-06-22T13:45:10;23.50;99.90
4908;DHT22;64375;51.540;7.364;2023-06-22T13:47:56;23.50;99.90
4908;DHT22;64375;51.540;7.364;2023-06-22T13:50:59;23.60;99.90
4908;DHT22;64375;51.540;7.364;2023-06-22T13:53:28;23.70;99.90
4908;DHT22;64375;51.540;7.364;2023-06-22T13:55:56;23.60;99.90
4908;DHT22;64375;51.540;7.364;2023-06-22T13:58:30;23.70;99.90
4908;DHT22;64375;51.540;7.364;2023-06-22T14:00:58;23.70;99.90
4908;DHT22;64375;51.540;7.364;2023-06-22T14:03:26;23.80;99.90
4908;DHT22;64375;51.540;7.364;2023-06-22T14:05:58;23.80;99.90
4908;DHT22;64375;51.540;7.364;2023-06-22T14:08:32;23.60;99.90
4908;DHT22;64375;51.540;7.364;2023-06-22T14:11:08;23.50;99.90
4908;DHT22;64375;51.540;7.364;2023-06-22T14:13:36;23.40;99.90
4908;DHT22;64375;51.540;7.364;2023-06-22T14:16:09;23.50;99.90
4908;DHT22;64375;51.540;7.364;2023-06-22T14:18:37;23.60;99.90
4908;DHT22;64375;51.540;7.364;2023-06-22T14:21:11;23.50;99.90
4908;DHT22;64375;51.540;7.364;2023-06-22T14:23:42;23.60;99.90
4908;DHT22;64375;51.540;7.364;2023-06-22T14:26:18;23.60;99.90
4908;DHT22;64375;51.540;7.364;2023-06-22T14:28:46;23.60;99.90
4908;DHT22;64375;51.540;7.364;2023-06-22T14:31:16;23.70;99.90
4908;DHT22;64375;51.540;7.364;2023-06-22T14:33:48;23.80;99.90
4908;DHT22;64375;51.540;7.364;2023-06-22T14:36:18;23.80;99.90
4908;DHT22;64375;51.540;7.364;2023-06-22T14:38:49;23.90;99.90
4908;DHT22;64375;51.540;7.364;2023-06-22T14:41:17;23.90;99.90
4908;DHT22;64375;51.540;7.364;2023-06-22T14:43:45;24.10;99.90
4908;DHT22;64375;51.540;7.364;2023-06-22T14:46:18;24.20;99.90
4908;DHT22;64375;51.540;7.364;2023-06-22T14:48:49;24.20;99.90
4908;DHT22;64375;51.540;7.364;2023-06-22T14:51:19;24.10;99.90
4908;DHT22;64375;51.540;7.364;2023-06-22T14:53:47;24.00;99.90
4908;DHT22;64375;51.540;7.364;2023-06-22T14:56:22;23.90;99.90
4908;DHT22;64375;51.540;7.364;2023-06-22T14:58:52;23.90;99.90
4908;DHT22;64375;51.540;7.364;2023-06-22T15:01:20;23.80;99.90
4908;DHT22;64375;51.540;7.364;2023-06-22T15:03:58;23.60;99.90
4908;DHT22;64375;51.540;7.364;2023-06-22T15:06:27;23.50;99.90
4908;DHT22;64375;51.540;7.364;2023-06-22T15:08:55;23.40;99.90
4908;DHT22;64375;51.540;7.364;2023-06-22T15:11:26;23.40;99.90
4908;DHT22;64375;51.540;7.364;2023-06-22T15:13:57;23.40;99.90
4908;DHT22;64375;51.540;7.364;2023-06-22T15:16:25;23.40;99.90
4908;DHT22;64375;51.540;7.364;2023-06-22T15:18:53;23.40;99.90
4908;DHT22;64375;51.540;7.364;2023-06-22T15:21:21;23.40;99.90
4908;DHT22;64375;51.540;7.364;2023-06-22T15:23:54;23.30;99.90
4908;DHT22;64375;51.540;7.364;2023-06-22T15:26:28;23.10;99.90
4908;DHT22;64375;51.540;7.364;2023-06-22T15:28:56;23.00;99.90
4908;DHT22;64375;51.540;7.364;2023-06-22T15:31:24;23.00;99.90
4908;DHT22;64375;51.540;7.364;2023-06-22T15:33:52;22.90;99.90
4908;DHT22;64375;51.540;7.364;2023-06-22T15:36:25;22.90;99.90
4908;DHT22;64375;51.540;7.364;2023-06-22T15:38:55;23.00;99.90
4908;DHT22;64375;51.540;7.364;2023-06-22T15:41:29;22.90;99.90
4908;DHT22;64375;51.540;7.364;2023-06-22T15:44:00;22.80;99.90
4908;DHT22;64375;51.540;7.364;2023-06-22T15:46:28;22.90;99.90
4908;DHT22;64375;51.540;7.364;2023-06-22T15:48:56;22.90;99.90
4908;DHT22;64375;51.540;7.364;2023-06-22T15:51:24;22.80;99.90
4908;DHT22;64375;51.540;7.364;2023-06-22T15:53:52;22.80;99.90
4908;DHT22;64375;51.540;7.364;2023-06-22T15:56:23;22.90;99.90
4908;DHT22;64375;51.540;7.364;2023-06-22T15:58:51;22.90;99.90
4908;DHT22;64375;51.540;7.364;2023-06-22T16:01:20;22.80;99.90
4908;DHT22;64375;51.540;7.364;2023-06-22T16:03:59;22.90;99.90
4908;DHT22;64375;51.540;7.364;2023-06-22T16:06:35;23.00;99.90
4908;DHT22;64375;51.540;7.364;2023-06-22T16:09:09;23.00;99.90
4908;DHT22;64375;51.540;7.364;2023-06-22T16:12:00;23.20;99.90
4908;DHT22;64375;51.540;7.364;2023-06-22T16:14:29;23.20;99.90